• Join FlightAware (Why Join?)
  • Login
  • US Flag 
03:37PM EDT


 

Airport Tracker/Info


-or-


 

Live Flight TrackerFlight Track Log ✈ N288M ✈ 23-Dec-2011 ✈ KADH - KAHN

Flight Track Log - Related Links

Times and Time Zones

All times are in EST time to prevent confusion due to time zone crossing. See the N288M flight status page for this flight to view local times or setup timezone preferences in your user account.

Time Position Orientation Groundspeed Altitude Reporting Facility
EST Latitude Longitude Course Direction KTS MPH feet Rate Location/Type
09:08AM 34.8000 -96.6009 80° East  Level FlightAware Approximate
09:09AM 34.8047 -96.5689 98° East 162 186 4,900  Level Fort Worth Center
09:10AM 34.8003 -96.5286 90° East 129 148 6,000 1,020 Climbing Fort Worth Center
09:11AM 34.8000 -96.4881 87° East 124 143 7,000 1,020 Climbing Fort Worth Center
09:12AM 34.8019 -96.4450 94° East 124 143 8,100 1,140 Climbing Fort Worth Center
09:13AM 34.7994 -96.4019 94° East 124 143 9,300 1,080 Climbing Fort Worth Center
09:14AM 34.7969 -96.3542 88° East 130 150 10,300 900 Climbing Fort Worth Center
09:15AM 34.7986 -96.3036 91° East 136 157 11,200 900 Climbing Fort Worth Center
09:16AM 34.7981 -96.2478 91° East 148 170 12,200 960 Climbing Fort Worth Center
09:17AM 34.7975 -96.1947 91° East 154 177 13,200 900 Climbing Fort Worth Center
09:18AM 34.7969 -96.1289 91° East 160 184 14,100 900 Climbing Fort Worth Center
09:19AM 34.7961 -96.0658 93° East 171 197 15,100 900 Climbing Fort Worth Center
09:20AM 34.7933 -96.0025 91° East 183 211 15,900 900 Climbing Fort Worth Center
09:21AM 34.7928 -95.9344 91° East 189 217 16,900 540 Climbing Fort Worth Center
09:22AM 34.7917 -95.8586 93° East 205 236 17,000 60 Climbing Fort Worth Center
09:23AM 34.7886 -95.7753 89° East 228 262 17,100  Climbing Fort Worth Center
09:24AM 34.7897 -95.7069 91° East 239 275 17,100 -60 Level Fort Worth Center
09:25AM 34.7886 -95.6133 88° East 244 281 17,000 -60 Descending Fort Worth Center
09:26AM 34.7914 -95.5247 91° East 244 281 17,000  Level Fort Worth Center
09:27AM 34.7900 -95.4364 93° East 244 281 17,000  Level Fort Worth Center
09:28AM 34.7864 -95.3506 91° East 249 287 17,000  Level Fort Worth Center
09:29AM 34.7850 -95.2644 97° East 249 287 17,000  Level Fort Worth Center
09:30AM 34.7775 -95.1914 89° East 249 287 17,000  Level Fort Worth Center
09:32AM 34.7789 -95.0092 95° East 240 276 17,000  Level Memphis Center
09:33AM 34.7717 -94.9178 89° East 240 276 17,100  Climbing Memphis Center
09:34AM 34.7731 -94.8269 93° East 251 289 17,100  Level Memphis Center
09:35AM 34.7694 -94.7458 91° East 251 289 17,100  Level Memphis Center
09:36AM 34.7683 -94.6600 91° East 251 289 17,100  Level Memphis Center
09:37AM 34.7672 -94.5739 93° East 251 289 17,100  Level Memphis Center
09:38AM 34.7636 -94.4903 91° East 251 289 17,100  Level Memphis Center
09:39AM 34.7622 -94.4042 93° East 257 296 17,100  Level Memphis Center
09:40AM 34.7589 -94.3156 88° East 257 296 17,100  Level Memphis Center
09:41AM 34.7617 -94.2272 91° East 262 302 17,100  Level Memphis Center
09:42AM 34.7600 -94.1439 94° East 252 290 17,100  Level Memphis Center
09:43AM 34.7544 -94.0550 91° East 252 290 17,100  Level Memphis Center
09:44AM 34.7528 -93.9692 93° East 252 290 17,100  Level Memphis Center
09:45AM 34.7489 -93.8856 91° East 252 290 17,100  Level Memphis Center
09:46AM 34.7472 -93.7994 95° East 252 290 17,100  Level Memphis Center
09:47AM 34.7411 -93.7133 92° East 252 290 17,100  Level Memphis Center
09:48AM 34.7392 -93.6325 92° East 252 290 17,100  Level Memphis Center
09:49AM 34.7372 -93.5464 95° East 252 290 17,100  Level Memphis Center
09:50AM 34.7311 -93.4603 90° East 258 297 17,100  Level Memphis Center
09:51AM 34.7308 -93.3769 93° East 258 297 17,100  Level Memphis Center
09:52AM 34.7267 -93.2908 92° East 258 297 17,100  Level Memphis Center
09:53AM 34.7244 -93.2047 93° East 253 291 17,100  Level Memphis Center
09:54AM 34.7203 -93.1214 93° East 179 206 17,100  Level Memphis Center
09:55AM 34.7158 -93.0328 92° East 212 244 17,100  Level Memphis Center
09:56AM 34.7136 -92.9467 94° East 239 275 17,100  Level Memphis Center
09:57AM 34.7089 -92.8633 92° East 251 289 17,100  Level Memphis Center
09:58AM 34.7064 -92.7772 93° East 256 295 17,100  Level Memphis Center
09:59AM 34.7019 -92.6886 92° East 256 295 17,100  Level Memphis Center
10:00AM 34.6992 -92.6028 92° East 256 295 17,100  Level Memphis Center
10:01AM 34.6967 -92.5169 94° East 256 295 17,100  Level Memphis Center
10:02AM 34.6919 -92.4333 92° East 256 295 17,100  Level Memphis Center
10:03AM 34.6892 -92.3450 94° East 256 295 17,100  Level Memphis Center
10:04AM 34.6842 -92.2589 93° East 256 295 17,100  Level Memphis Center
10:05AM 34.6811 -92.1756 94° East 256 295 17,100  Level Memphis Center
10:06AM 34.6761 -92.0844 96° East 256 295 17,100  Level Memphis Center
10:07AM 34.6689 -92.0036 91° East 256 295 17,100  Level Memphis Center
10:08AM 34.6681 -91.9150 92° East 256 295 17,100  Level Memphis Center
10:09AM 34.6650 -91.8292 94° East 256 295 17,100  Level Memphis Center
10:10AM 34.6597 -91.7433 94° East 256 295 17,100  Level Memphis Center
10:11AM 34.6542 -91.6575 94° East 256 295 17,100  Level Memphis Center
10:12AM 34.6489 -91.5739 93° East 256 295 17,100  Level Memphis Center
10:13AM 34.6456 -91.4856 91° East 256 295 17,100  Level Memphis Center
10:14AM 34.6442 -91.3997 95° East 256 295 17,100  Level Memphis Center
10:15AM 34.6386 -91.3164 94° East 256 295 17,100  Level Memphis Center
10:16AM 34.6331 -91.2281 92° East 256 295 17,100  Level Memphis Center
10:17AM 34.6314 -91.1522 96° East 256 295 17,100 -60 Level Memphis Center
10:18AM 34.6236 -91.0664 93° East 256 295 17,000 -60 Descending Memphis Center
10:19AM 34.6197 -90.9781 93° East 256 295 17,000  Level Memphis Center
10:20AM 34.6161 -90.8922 95° East 256 295 17,000  Level Memphis Center
10:21AM 34.6103 -90.8039 97° East 256 295 17,000  Level Memphis Center
10:22AM 34.6019 -90.7181 93° East 256 295 17,000  Level Memphis Center
10:23AM 34.5981 -90.6322 93° East 256 295 17,000  Level Memphis Center
10:24AM 34.5942 -90.5361 95° East 256 295 17,000  Level Memphis Center
10:25AM 34.5881 -90.4506 95° East 261 300 17,000  Level Memphis Center
10:26AM 34.5817 -90.3647 93° East 256 295 17,000  Level Memphis Center
10:27AM 34.5775 -90.2789 95° East 256 295 17,000  Level Memphis Center
10:28AM 34.5711 -90.1906 93° East 256 295 17,000  Level Memphis Center
10:29AM 34.5669 -90.1050 95° East 256 295 17,000  Level Memphis Center
10:30AM 34.5603 -90.0167 94° East 256 295 17,000  Level Memphis Center
10:31AM 34.5558 -89.9308 95° East 256 295 17,000  Level Memphis Center
10:32AM 34.5494 -89.8453 95° East 256 295 17,000  Level Memphis Center
10:33AM 34.5428 -89.7569 94° East 256 295 17,000  Level Memphis Center
10:34AM 34.5381 -89.6689 94° East 256 295 17,000  Level Memphis Center
10:35AM 34.5333 -89.5831 95° East 256 295 17,000  Level Memphis Center
10:36AM 34.5267 -89.4975 95° East 256 295 17,000  Level Memphis Center
10:37AM 34.5197 -89.4094 95° East 256 295 17,000  Level Memphis Center
10:38AM 34.5147 -89.3339 94° East 256 295 17,000  Level Memphis Center
10:39AM 34.5100 -89.2456 94° East 256 295 17,000  Level Memphis Center
10:40AM 34.5050 -89.1625 96° East 250 288 17,000  Level Memphis Center
10:41AM 34.4978 -89.0744 96° East 258 297 17,000  Level Memphis Center
10:42AM 34.4906 -88.9889 94° East 258 297 17,000  Level Memphis Center
10:43AM 34.4856 -88.9008 94° East 258 297 17,000  Level Memphis Center
10:44AM 34.4803 -88.8100 96° East 253 291 17,000  Level Memphis Center
10:45AM 34.4728 -88.7247 98° East 253 291 17,000  Level Memphis Center
10:46AM 34.4633 -88.6417 93° East 253 291 17,000  Level Memphis Center
10:47AM 34.4600 -88.5561 96° East 253 291 17,000  Level Memphis Center
10:48AM 34.4525 -88.4706 94° East 253 291 17,000  Level Memphis Center
10:49AM 34.4469 -88.3850 96° East 253 291 17,000  Level Memphis Center
10:50AM 34.4394 -88.2997 96° East 258 297 17,000  Level Memphis Center
10:51AM 34.4317 -88.2142 94° East 258 297 17,000  Level Memphis Center
10:52AM 34.4261 -88.1286 95° East 258 297 17,000  Level Memphis Center
10:53AM 34.4203 -88.0433 96° East 258 297 17,000  Level Memphis Center
10:54AM 34.4125 -87.9606 96° East 258 297 17,000  Level Memphis Center
10:55AM 34.4044 -87.8750 95° East 258 297 17,000  Level Memphis Center
10:56AM 34.3986 -87.7897 97° East 258 297 17,000  Level Memphis Center
10:57AM 34.3906 -87.7044 97° East 258 297 17,000  Level Memphis Center
10:58AM 34.3825 -87.6242 96° East 253 291 17,000  Level Memphis Center
10:59AM 34.3767 -87.5511 96° East 253 291 17,000  Level Memphis Center
11:00AM 34.3683 -87.4533 93° East 258 297 17,000  Level Memphis Center
11:01AM 34.3642 -87.3706 97° East 253 291 17,000  Level Memphis Center
11:02AM 34.3558 -87.2878 95° East 253 291 17,000  Level Memphis Center
11:03AM 34.3494 -87.2025 97° East 253 291 17,000  Level Memphis Center
11:04AM 34.3411 -87.1172 95° East 253 291 17,000  Level Memphis Center
11:05AM 34.3347 -87.0319 97° East 253 291 17,000  Level Memphis Center
11:06AM 34.3261 -86.9469 95° East 253 291 17,000  Level Memphis Center
11:07AM 34.3197 -86.8617 96° East 253 291 17,000  Level Memphis Center
11:09AM 34.3058 -86.7069 96° East 261 300 17,000  Level Atlanta Center
11:10AM 34.2975 -86.6186 96° East 261 300 17,000  Level Atlanta Center
11:11AM 34.2908 -86.5356 95° East 255 293 17,000  Level Atlanta Center
11:12AM 34.2842 -86.4497 97° East 255 293 17,000  Level Atlanta Center
11:13AM 34.2753 -86.3642 96° East 255 293 17,000  Level Atlanta Center
11:14AM 34.2686 -86.2808 98° East 255 293 17,100  Climbing Atlanta Center
11:15AM 34.2594 -86.1978 95° East 255 293 17,100  Level Atlanta Center
11:16AM 34.2528 -86.1097 99° East 255 293 17,100  Level Atlanta Center
11:17AM 34.2417 -86.0264 96° East 255 293 17,100  Level Atlanta Center
11:18AM 34.2344 -85.9433 98° East 255 293 17,100  Level Atlanta Center
11:19AM 34.2253 -85.8603 99° East 255 293 17,100 -60 Level Atlanta Center
11:20AM 34.2142 -85.7722 103° East 255 293 17,000 -60 Descending Atlanta Center
11:21AM 34.1986 -85.6914 101° East 250 288 17,000  Level Atlanta Center
11:22AM 34.1850 -85.6083 104° East 250 288 17,000  Level Atlanta Center
11:23AM 34.1692 -85.5303 107° East 240 276 17,000  Level Atlanta Center
11:24AM 34.1514 -85.4594 102° East 240 276 17,000  Level Atlanta Center
11:25AM 34.1375 -85.3789 106° East 240 276 17,000  Level Atlanta Center
11:26AM 34.1197 -85.3033 118° Southeast 240 276 17,000  Level Atlanta Center
11:27AM 34.0892 -85.2328 121° Southeast 240 276 17,000  Level Atlanta Center
11:28AM 34.0564 -85.1672 97° East 235 270 17,000  Level Atlanta Center
11:29AM 34.0486 -85.0867 93° East 229 264 17,000 -180 Level Atlanta Center
11:30AM 34.0453 -85.0014 94° East 245 282 16,700 -540 Descending Atlanta Center
11:31AM 34.0394 -84.9086 93° East 253 291 16,000 -720 Descending Atlanta Center
11:32AM 34.0358 -84.8333 94° East 261 300 15,300 -540 Descending Atlanta Center
11:33AM 34.0303 -84.7481 91° East 254 292 15,000 -180 Descending Atlanta Center
11:34AM 34.0286 -84.6681 97° East 248 285 15,000  Level Atlanta Center
11:35AM 34.0206 -84.5928 98° East 230 265 15,000  Level Atlanta Center
11:36AM 34.0125 -84.5200 107° East 225 259 15,000  Level Atlanta Center
11:37AM 33.9939 -84.4472 103° East 225 259 15,000  Level Atlanta Center
11:38AM 33.9794 -84.3744 105° East 225 259 15,000  Level Atlanta Center
11:39AM 33.9631 -84.2992 105° East 225 259 15,000  Level Atlanta Center
11:40AM 33.9464 -84.2217 103° East 230 265 15,000  Level Atlanta Center
11:41AM 33.9300 -84.1389 107° East 230 265 15,000  Level Atlanta Center
11:42AM 33.9111 -84.0639 106° East 230 265 15,000  Level Atlanta Center
11:42AM 33.9000 -84.0167 90° East 237 273 15,000 -360 Level Atlanta TRACON
11:43AM 33.9000 -83.9500 90° East 232 267 14,500 -1,020 Descending Atlanta TRACON
11:44AM 33.9000 -83.8833 78° East 206 237 13,000 -1,620 Descending Atlanta TRACON
11:45AM 33.9067 -83.8461 83° East 213 245 12,200 -1,500 Descending Atlanta Center
11:46AM 33.9131 -83.7808 86° East 202 232 10,800 -1,140 Descending Atlanta Center
11:47AM 33.9169 -83.7183 82° East 188 216 10,000 -600 Descending Atlanta Center
11:48AM 33.9231 -83.6683 93° East 164 189 9,600 -840 Descending Atlanta Center
11:49AM 33.9208 -83.6158 88° East 159 183 8,400 -1,320 Descending Atlanta Center
11:50AM 33.9228 -83.5531 93° East 168 193 7,000 -1,500 Descending Atlanta Center
11:51AM 33.9203 -83.4931 82° East 173 199 5,500 -1,500 Descending Atlanta Center
11:53AM 33.9333 -83.3833 90° East 147 169 2,300 -1,260 Descending Atlanta TRACON
11:54AM 33.9333 -83.3333 90° East 137 158 1,600 -720 Descending Atlanta TRACON